Triton Leader — 3FFE9 — position and weather

sailwx.info

Track history (hours):
 
Tides and Currents Weather Stations Pressure Air Temp Water Temp Dewpoint Dewpoint Depression Visibility Wind Speed Wind Dir Waves Ship Positions

Triton Leader

Last reported at 2017-Sep-20 03:51 UTC. Time now 2017-Sep-24 15:55 UTC.
Position S 30°16' E 030°57'.

Length 199 m; draft 8.9 m.

Type: Cargo ship. MMSI: 357795000.

Date/timePositionNaut miles runAvg speedWind from/ knotsBaromVisibWave heightAir tempDewpointWater temp
2017-Sep-20 03:51S 30°16' E 030°57'616.6
2017-Sep-20 03:30S 30°11' E 030°60'816.3
2017-Sep-20 03:01S 30°04' E 031°04'816.3
2017-Sep-20 02:31S 29°57' E 031°09'612.9
2017-Sep-20 02:00S 29°51' E 031°06'4 7.7
2017-Sep-20 01:27S 29°52' E 031°02'1 1.6
2017-Sep-20 01:00S 29°52' E 031°02'0 0.0
2017-Sep-20 00:29S 29°52' E 031°02'0 0.0
2017-Sep-19 23:59S 29°52' E 031°02'0 0.0
2017-Sep-19 23:29S 29°52' E 031°02'0 0.0
2017-Sep-19 22:59S 29°52' E 031°02'0 0.0
2017-Sep-19 22:29S 29°52' E 031°02'0 0.0
2017-Sep-19 21:59S 29°52' E 031°02'0 0.0
2017-Sep-19 21:29S 29°52' E 031°02'0 0.0
2017-Sep-19 20:59S 29°52' E 031°02'0 0.0
2017-Sep-19 20:29S 29°52' E 031°02'0 0.0
2017-Sep-19 19:59S 29°52' E 031°02'0 0.0
2017-Sep-19 19:29S 29°52' E 031°02'0 0.0
2017-Sep-19 18:59S 29°52' E 031°02'0 0.0
2017-Sep-19 18:29S 29°52' E 031°02'0 0.0
2017-Sep-19 17:59S 29°52' E 031°02'0 0.0
2017-Sep-19 17:29S 29°52' E 031°02'0 0.0
2017-Sep-19 16:59S 29°52' E 031°02'0 0.0
2017-Sep-19 16:29S 29°52' E 031°02'0 0.0
2017-Sep-19 15:59S 29°52' E 031°02'0 0.0
2017-Sep-19 15:29S 29°52' E 031°02'0 0.0
2017-Sep-19 14:59S 29°52' E 031°02'0 0.0
2017-Sep-19 14:29S 29°52' E 031°02'0 0.0
2017-Sep-19 13:59S 29°52' E 031°02'0 0.0
2017-Sep-19 13:29S 29°52' E 031°02'0 0.0
2017-Sep-19 12:59S 29°52' E 031°02'0 0.0
2017-Sep-19 12:29S 29°52' E 031°02'0 0.0
2017-Sep-19 11:59S 29°52' E 031°02'0 0.0
2017-Sep-19 11:29S 29°52' E 031°02'0 0.0
2017-Sep-19 10:59S 29°52' E 031°02'0 0.0
2017-Sep-19 10:29S 29°52' E 031°02'0 0.0
2017-Sep-19 09:59S 29°52' E 031°02'0 0.0
2017-Sep-19 09:29S 29°52' E 031°02'0 0.0
2017-Sep-19 08:59S 29°52' E 031°02'0 0.0
2017-Sep-19 08:29S 29°52' E 031°02'0 0.0
2017-Sep-19 07:59S 29°52' E 031°02'0 0.0
2017-Sep-19 07:26S 29°52' E 031°02'0 0.0
2017-Sep-19 06:59S 29°52' E 031°02'0 0.0
2017-Sep-19 06:29S 29°52' E 031°02'0 0.0
2017-Sep-19 05:59S 29°52' E 031°02'0 0.0
2017-Sep-19 05:29S 29°52' E 031°02'0 0.0
2017-Sep-19 04:59S 29°52' E 031°02'0 0.0
2017-Sep-19 04:29S 29°52' E 031°02'0 0.0
2017-Sep-19 03:59S 29°52' E 031°02'0 0.0
2017-Sep-19 03:29S 29°52' E 031°02'0 0.0
2017-Sep-19 02:59S 29°52' E 031°02'0 0.0
2017-Sep-19 02:29S 29°52' E 031°02'0 0.0
2017-Sep-19 01:59S 29°52' E 031°02'0 0.0
2017-Sep-19 01:26S 29°52' E 031°02'0 0.0
2017-Sep-19 00:59S 29°52' E 031°02'0 0.0
2017-Sep-19 00:29S 29°52' E 031°02'0 0.0
2017-Sep-18 23:59S 29°52' E 031°02'0 0.0
2017-Sep-18 23:29S 29°52' E 031°02'0 0.0
2017-Sep-18 22:59S 29°52' E 031°02'0 0.0
2017-Sep-18 22:29S 29°52' E 031°02'0 0.0
2017-Sep-18 21:59S 29°52' E 031°02'0 0.0
2017-Sep-18 21:29S 29°52' E 031°02'0 0.0
2017-Sep-18 20:59S 29°52' E 031°02'0 0.0
2017-Sep-18 20:29S 29°52' E 031°02'0 0.0
2017-Sep-18 19:59S 29°52' E 031°02'0 0.0
2017-Sep-18 19:29S 29°52' E 031°02'0 0.0
2017-Sep-18 18:59S 29°52' E 031°02'0 0.0
2017-Sep-18 18:29S 29°52' E 031°02'0 0.0
2017-Sep-18 18:00S 29°52' E 031°02'1 2.1
2017-Sep-18 17:30S 29°53' E 031°03'4 7.2
2017-Sep-18 17:00S 29°50' E 031°05'2 3.7
2017-Sep-18 16:30S 29°49' E 031°07'4 7.9
2017-Sep-18 16:00S 29°50' E 031°11'1 2.0
2017-Sep-18 15:30S 29°49' E 031°11'2 4.0
2017-Sep-18 15:00S 29°50' E 031°10'611.5
2017-Sep-18 14:31S 29°56' E 031°10'917.7
2017-Sep-18 14:01S 30°04' E 031°05'918.0
2017-Sep-18 13:30S 30°12' E 031°00'918.2
2017-Sep-18 13:01S 30°20' E 030°55'917.5
2017-Sep-18 12:30S 30°28' E 030°50'  
Track history (hours):
 
Tides and Currents Weather Stations Pressure Air Temp Water Temp Dewpoint Dewpoint Depression Visibility Wind Speed Wind Dir Waves Ship Positions

Triton Leader

Last reported at 2017-Sep-20 03:51 UTC. Time now 2017-Sep-24 15:55 UTC.
Position S 30°16' E 030°57'.

Length 199 m; draft 8.9 m.

Type: Cargo ship. MMSI: 357795000.

Date/timePositionNaut miles runAvg speedWind from/ knotsBaromVisibWave heightAir tempDewpointWater temp
2017-Sep-20 03:51S 30°16' E 030°57'616.6
2017-Sep-20 03:30S 30°11' E 030°60'816.3
2017-Sep-20 03:01S 30°04' E 031°04'816.3
2017-Sep-20 02:31S 29°57' E 031°09'612.9
2017-Sep-20 02:00S 29°51' E 031°06'4 7.7
2017-Sep-20 01:27S 29°52' E 031°02'1 1.6
2017-Sep-20 01:00S 29°52' E 031°02'0 0.0
2017-Sep-20 00:29S 29°52' E 031°02'0 0.0
2017-Sep-19 23:59S 29°52' E 031°02'0 0.0
2017-Sep-19 23:29S 29°52' E 031°02'0 0.0
2017-Sep-19 22:59S 29°52' E 031°02'0 0.0
2017-Sep-19 22:29S 29°52' E 031°02'0 0.0
2017-Sep-19 21:59S 29°52' E 031°02'0 0.0
2017-Sep-19 21:29S 29°52' E 031°02'0 0.0
2017-Sep-19 20:59S 29°52' E 031°02'0 0.0
2017-Sep-19 20:29S 29°52' E 031°02'0 0.0
2017-Sep-19 19:59S 29°52' E 031°02'0 0.0
2017-Sep-19 19:29S 29°52' E 031°02'0 0.0
2017-Sep-19 18:59S 29°52' E 031°02'0 0.0
2017-Sep-19 18:29S 29°52' E 031°02'0 0.0
2017-Sep-19 17:59S 29°52' E 031°02'0 0.0
2017-Sep-19 17:29S 29°52' E 031°02'0 0.0
2017-Sep-19 16:59S 29°52' E 031°02'0 0.0
2017-Sep-19 16:29S 29°52' E 031°02'0 0.0
2017-Sep-19 15:59S 29°52' E 031°02'0 0.0
2017-Sep-19 15:29S 29°52' E 031°02'0 0.0
2017-Sep-19 14:59S 29°52' E 031°02'0 0.0
2017-Sep-19 14:29S 29°52' E 031°02'0 0.0
2017-Sep-19 13:59S 29°52' E 031°02'0 0.0
2017-Sep-19 13:29S 29°52' E 031°02'0 0.0
2017-Sep-19 12:59S 29°52' E 031°02'0 0.0
2017-Sep-19 12:29S 29°52' E 031°02'0 0.0
2017-Sep-19 11:59S 29°52' E 031°02'0 0.0
2017-Sep-19 11:29S 29°52' E 031°02'0 0.0
2017-Sep-19 10:59S 29°52' E 031°02'0 0.0
2017-Sep-19 10:29S 29°52' E 031°02'0 0.0
2017-Sep-19 09:59S 29°52' E 031°02'0 0.0
2017-Sep-19 09:29S 29°52' E 031°02'0 0.0
2017-Sep-19 08:59S 29°52' E 031°02'0 0.0
2017-Sep-19 08:29S 29°52' E 031°02'0 0.0
2017-Sep-19 07:59S 29°52' E 031°02'0 0.0
2017-Sep-19 07:26S 29°52' E 031°02'0 0.0
2017-Sep-19 06:59S 29°52' E 031°02'0 0.0
2017-Sep-19 06:29S 29°52' E 031°02'0 0.0
2017-Sep-19 05:59S 29°52' E 031°02'0 0.0
2017-Sep-19 05:29S 29°52' E 031°02'0 0.0
2017-Sep-19 04:59S 29°52' E 031°02'0 0.0
2017-Sep-19 04:29S 29°52' E 031°02'0 0.0
2017-Sep-19 03:59S 29°52' E 031°02'0 0.0
2017-Sep-19 03:29S 29°52' E 031°02'0 0.0
2017-Sep-19 02:59S 29°52' E 031°02'0 0.0
2017-Sep-19 02:29S 29°52' E 031°02'0 0.0
2017-Sep-19 01:59S 29°52' E 031°02'0 0.0
2017-Sep-19 01:26S 29°52' E 031°02'0 0.0
2017-Sep-19 00:59S 29°52' E 031°02'0 0.0
2017-Sep-19 00:29S 29°52' E 031°02'0 0.0
2017-Sep-18 23:59S 29°52' E 031°02'0 0.0
2017-Sep-18 23:29S 29°52' E 031°02'0 0.0
2017-Sep-18 22:59S 29°52' E 031°02'0 0.0
2017-Sep-18 22:29S 29°52' E 031°02'0 0.0
2017-Sep-18 21:59S 29°52' E 031°02'0 0.0
2017-Sep-18 21:29S 29°52' E 031°02'0 0.0
2017-Sep-18 20:59S 29°52' E 031°02'0 0.0
2017-Sep-18 20:29S 29°52' E 031°02'0 0.0
2017-Sep-18 19:59S 29°52' E 031°02'0 0.0
2017-Sep-18 19:29S 29°52' E 031°02'0 0.0
2017-Sep-18 18:59S 29°52' E 031°02'0 0.0
2017-Sep-18 18:29S 29°52' E 031°02'0 0.0
2017-Sep-18 18:00S 29°52' E 031°02'1 2.1
2017-Sep-18 17:30S 29°53' E 031°03'4 7.2
2017-Sep-18 17:00S 29°50' E 031°05'2 3.7
2017-Sep-18 16:30S 29°49' E 031°07'4 7.9
2017-Sep-18 16:00S 29°50' E 031°11'1 2.0
2017-Sep-18 15:30S 29°49' E 031°11'2 4.0
2017-Sep-18 15:00S 29°50' E 031°10'611.5
2017-Sep-18 14:31S 29°56' E 031°10'917.7
2017-Sep-18 14:01S 30°04' E 031°05'918.0
2017-Sep-18 13:30S 30°12' E 031°00'918.2
2017-Sep-18 13:01S 30°20' E 030°55'917.5
2017-Sep-18 12:30S 30°28' E 030°50'  

Dump ship's entire track history